Terminal Aerodrome Forecast
Issued by NWS St Louis, MO

Home | Current Version | Previous Version | Graphics & Text | Print | Product List | Glossary On
Versions: 1 2 3 4 5 6 7 8 9 10 11 12 13 14 15 16 17 18 19 20 21 22 23 24 25 26 27
359
FTUS43 KLSX 150520
TAFSTL
TAF
KSTL 150520Z 1506/1612 22012G21KT P6SM VCTS OVC035CB
      TEMPO 1506/1508 3SM SHRA OVC020
     FM150900 28015G24KT 4SM SHRA OVC025
     FM151200 29016G24KT P6SM VCSH OVC015
     FM151400 30016G24KT P6SM OVC025
     FM151700 31015G23KT P6SM SCT045
     FM160500 VRB03KT P6SM SKC=

USA.gov is the U.S. government's official web portal to all federal, state and local government web resources and services.